sensor_id;sensor_type;location;lat;lon;timestamp;P1;durP1;ratioP1;P2;durP2;ratioP2
47796;SDS011;33558;50.922;14.068;2022-08-16T00:02:03;14.48;;;12.07;;
47796;SDS011;33558;50.922;14.068;2022-08-16T00:04:32;14.70;;;11.68;;
47796;SDS011;33558;50.922;14.068;2022-08-16T00:06:59;13.80;;;11.57;;
47796;SDS011;33558;50.922;14.068;2022-08-16T00:09:26;12.90;;;11.60;;
47796;SDS011;33558;50.922;14.068;2022-08-16T00:11:52;14.68;;;11.63;;
47796;SDS011;33558;50.922;14.068;2022-08-16T00:14:21;12.95;;;11.68;;
47796;SDS011;33558;50.922;14.068;2022-08-16T00:16:50;15.00;;;11.73;;
47796;SDS011;33558;50.922;14.068;2022-08-16T00:19:17;13.07;;;11.73;;
47796;SDS011;33558;50.922;14.068;2022-08-16T00:21:47;14.82;;;12.25;;
47796;SDS011;33558;50.922;14.068;2022-08-16T00:24:14;14.60;;;12.77;;
47796;SDS011;33558;50.922;14.068;2022-08-16T00:26:41;14.25;;;12.18;;
47796;SDS011;33558;50.922;14.068;2022-08-16T00:29:08;14.60;;;12.75;;
47796;SDS011;33558;50.922;14.068;2022-08-16T00:31:35;13.13;;;11.73;;
47796;SDS011;33558;50.922;14.068;2022-08-16T00:34:02;13.60;;;11.43;;
47796;SDS011;33558;50.922;14.068;2022-08-16T00:36:28;16.60;;;12.63;;
47796;SDS011;33558;50.922;14.068;2022-08-16T00:38:57;15.23;;;12.60;;
47796;SDS011;33558;50.922;14.068;2022-08-16T00:41:24;16.60;;;12.00;;
47796;SDS011;33558;50.922;14.068;2022-08-16T00:43:53;14.05;;;12.45;;
47796;SDS011;33558;50.922;14.068;2022-08-16T00:46:20;14.32;;;12.13;;
47796;SDS011;33558;50.922;14.068;2022-08-16T00:48:48;15.82;;;13.05;;
47796;SDS011;33558;50.922;14.068;2022-08-16T00:51:16;15.77;;;13.25;;
47796;SDS011;33558;50.922;14.068;2022-08-16T00:53:45;19.80;;;13.48;;
47796;SDS011;33558;50.922;14.068;2022-08-16T00:56:23;17.73;;;12.27;;
47796;SDS011;33558;50.922;14.068;2022-08-16T00:58:51;16.13;;;13.60;;
47796;SDS011;33558;50.922;14.068;2022-08-16T01:01:18;18.65;;;14.38;;
47796;SDS011;33558;50.922;14.068;2022-08-16T01:03:46;14.95;;;13.35;;
47796;SDS011;33558;50.922;14.068;2022-08-16T01:06:15;14.82;;;13.10;;
47796;SDS011;33558;50.922;14.068;2022-08-16T01:08:43;14.57;;;13.07;;
47796;SDS011;33558;50.922;14.068;2022-08-16T01:11:11;15.80;;;13.10;;
47796;SDS011;33558;50.922;14.068;2022-08-16T01:13:40;14.50;;;13.00;;
47796;SDS011;33558;50.922;14.068;2022-08-16T01:16:07;20.50;;;13.70;;
47796;SDS011;33558;50.922;14.068;2022-08-16T01:18:38;15.35;;;13.70;;
47796;SDS011;33558;50.922;14.068;2022-08-16T01:21:12;15.52;;;12.93;;
47796;SDS011;33558;50.922;14.068;2022-08-16T01:23:49;15.90;;;13.65;;
47796;SDS011;33558;50.922;14.068;2022-08-16T01:26:20;14.65;;;12.80;;
47796;SDS011;33558;50.922;14.068;2022-08-16T01:28:48;16.33;;;13.23;;
47796;SDS011;33558;50.922;14.068;2022-08-16T01:31:16;15.23;;;13.32;;
47796;SDS011;33558;50.922;14.068;2022-08-16T01:33:44;14.45;;;12.95;;
47796;SDS011;33558;50.922;14.068;2022-08-16T01:36:10;15.07;;;13.43;;
47796;SDS011;33558;50.922;14.068;2022-08-16T01:38:38;16.60;;;12.38;;
47796;SDS011;33558;50.922;14.068;2022-08-16T01:41:09;16.02;;;14.40;;
47796;SDS011;33558;50.922;14.068;2022-08-16T01:43:39;16.70;;;13.63;;
47796;SDS011;33558;50.922;14.068;2022-08-16T01:46:08;15.68;;;14.07;;
47796;SDS011;33558;50.922;14.068;2022-08-16T01:48:44;17.48;;;15.68;;
47796;SDS011;33558;50.922;14.068;2022-08-16T01:51:11;16.50;;;14.48;;
47796;SDS011;33558;50.922;14.068;2022-08-16T01:53:39;17.75;;;15.60;;
47796;SDS011;33558;50.922;14.068;2022-08-16T01:56:17;15.73;;;14.10;;
47796;SDS011;33558;50.922;14.068;2022-08-16T01:58:44;17.20;;;14.98;;
47796;SDS011;33558;50.922;14.068;2022-08-16T02:01:11;17.05;;;14.75;;
47796;SDS011;33558;50.922;14.068;2022-08-16T02:03:38;17.63;;;15.23;;
47796;SDS011;33558;50.922;14.068;2022-08-16T02:06:04;20.17;;;15.10;;
47796;SDS011;33558;50.922;14.068;2022-08-16T02:08:31;17.63;;;14.98;;
47796;SDS011;33558;50.922;14.068;2022-08-16T02:10:58;17.02;;;14.98;;
47796;SDS011;33558;50.922;14.068;2022-08-16T02:13:26;16.17;;;14.32;;
47796;SDS011;33558;50.922;14.068;2022-08-16T02:15:54;19.05;;;15.55;;
47796;SDS011;33558;50.922;14.068;2022-08-16T02:18:21;16.60;;;14.43;;
47796;SDS011;33558;50.922;14.068;2022-08-16T02:20:48;19.52;;;16.85;;
47796;SDS011;33558;50.922;14.068;2022-08-16T02:23:16;19.58;;;16.60;;
47796;SDS011;33558;50.922;14.068;2022-08-16T02:25:43;23.60;;;17.33;;
47796;SDS011;33558;50.922;14.068;2022-08-16T02:28:11;21.48;;;17.90;;
47796;SDS011;33558;50.922;14.068;2022-08-16T02:30:39;21.55;;;17.75;;
47796;SDS011;33558;50.922;14.068;2022-08-16T02:33:06;23.33;;;18.40;;
47796;SDS011;33558;50.922;14.068;2022-08-16T02:35:34;23.92;;;19.17;;
47796;SDS011;33558;50.922;14.068;2022-08-16T02:38:01;24.30;;;19.20;;
47796;SDS011;33558;50.922;14.068;2022-08-16T02:40:28;23.45;;;19.50;;
47796;SDS011;33558;50.922;14.068;2022-08-16T02:42:55;22.75;;;19.08;;
47796;SDS011;33558;50.922;14.068;2022-08-16T02:45:23;21.80;;;17.08;;
47796;SDS011;33558;50.922;14.068;2022-08-16T02:47:52;18.98;;;16.10;;
47796;SDS011;33558;50.922;14.068;2022-08-16T02:50:19;21.10;;;16.33;;
47796;SDS011;33558;50.922;14.068;2022-08-16T02:52:46;18.63;;;15.52;;
47796;SDS011;33558;50.922;14.068;2022-08-16T02:55:14;18.58;;;15.98;;
47796;SDS011;33558;50.922;14.068;2022-08-16T02:57:40;17.80;;;14.90;;
47796;SDS011;33558;50.922;14.068;2022-08-16T03:00:08;19.02;;;15.90;;
47796;SDS011;33558;50.922;14.068;2022-08-16T03:02:37;16.35;;;14.65;;
47796;SDS011;33558;50.922;14.068;2022-08-16T03:05:10;18.70;;;14.52;;
47796;SDS011;33558;50.922;14.068;2022-08-16T03:07:38;16.75;;;14.95;;
47796;SDS011;33558;50.922;14.068;2022-08-16T03:10:06;17.02;;;14.48;;
47796;SDS011;33558;50.922;14.068;2022-08-16T03:12:39;14.77;;;13.27;;
47796;SDS011;33558;50.922;14.068;2022-08-16T03:15:09;15.10;;;13.50;;
47796;SDS011;33558;50.922;14.068;2022-08-16T03:17:36;17.33;;;15.38;;
47796;SDS011;33558;50.922;14.068;2022-08-16T03:20:03;16.95;;;14.95;;
47796;SDS011;33558;50.922;14.068;2022-08-16T03:22:36;17.65;;;15.80;;
47796;SDS011;33558;50.922;14.068;2022-08-16T03:25:09;21.20;;;14.50;;
47796;SDS011;33558;50.922;14.068;2022-08-16T03:27:41;18.05;;;14.95;;
47796;SDS011;33558;50.922;14.068;2022-08-16T03:30:14;16.40;;;14.35;;
47796;SDS011;33558;50.922;14.068;2022-08-16T03:32:48;16.88;;;13.82;;
47796;SDS011;33558;50.922;14.068;2022-08-16T03:35:15;20.17;;;13.77;;
47796;SDS011;33558;50.922;14.068;2022-08-16T03:37:45;16.77;;;13.20;;
47796;SDS011;33558;50.922;14.068;2022-08-16T03:40:13;18.15;;;13.75;;
47796;SDS011;33558;50.922;14.068;2022-08-16T03:42:40;14.60;;;13.07;;
47796;SDS011;33558;50.922;14.068;2022-08-16T03:45:07;17.02;;;14.25;;
47796;SDS011;33558;50.922;14.068;2022-08-16T03:47:36;18.10;;;14.38;;
47796;SDS011;33558;50.922;14.068;2022-08-16T03:50:03;17.88;;;13.60;;
47796;SDS011;33558;50.922;14.068;2022-08-16T03:52:31;20.92;;;14.57;;
47796;SDS011;33558;50.922;14.068;2022-08-16T03:55:01;17.25;;;14.00;;
47796;SDS011;33558;50.922;14.068;2022-08-16T03:57:29;15.80;;;13.07;;
47796;SDS011;33558;50.922;14.068;2022-08-16T03:59:56;14.63;;;13.10;;
47796;SDS011;33558;50.922;14.068;2022-08-16T04:02:23;13.07;;;11.55;;
47796;SDS011;33558;50.922;14.068;2022-08-16T04:04:50;15.98;;;12.75;;
47796;SDS011;33558;50.922;14.068;2022-08-16T04:07:18;13.52;;;12.07;;
47796;SDS011;33558;50.922;14.068;2022-08-16T04:09:46;13.65;;;11.93;;
47796;SDS011;33558;50.922;14.068;2022-08-16T04:12:14;13.98;;;12.57;;
47796;SDS011;33558;50.922;14.068;2022-08-16T04:14:41;13.75;;;11.65;;
47796;SDS011;33558;50.922;14.068;2022-08-16T04:17:08;13.80;;;12.40;;
47796;SDS011;33558;50.922;14.068;2022-08-16T04:19:37;14.38;;;12.40;;
47796;SDS011;33558;50.922;14.068;2022-08-16T04:22:04;14.15;;;11.93;;
47796;SDS011;33558;50.922;14.068;2022-08-16T04:24:39;13.88;;;11.98;;
47796;SDS011;33558;50.922;14.068;2022-08-16T04:27:05;14.30;;;11.95;;
47796;SDS011;33558;50.922;14.068;2022-08-16T04:29:34;15.98;;;13.27;;
47796;SDS011;33558;50.922;14.068;2022-08-16T04:32:01;17.25;;;12.13;;
47796;SDS011;33558;50.922;14.068;2022-08-16T04:34:32;15.38;;;11.75;;
47796;SDS011;33558;50.922;14.068;2022-08-16T04:37:01;13.75;;;11.48;;
47796;SDS011;33558;50.922;14.068;2022-08-16T04:39:29;12.85;;;11.50;;
47796;SDS011;33558;50.922;14.068;2022-08-16T04:41:57;15.15;;;11.57;;
47796;SDS011;33558;50.922;14.068;2022-08-16T04:44:24;17.73;;;11.77;;
47796;SDS011;33558;50.922;14.068;2022-08-16T04:46:52;15.00;;;12.18;;
47796;SDS011;33558;50.922;14.068;2022-08-16T04:49:20;13.77;;;12.13;;
47796;SDS011;33558;50.922;14.068;2022-08-16T04:51:47;13.77;;;11.90;;
47796;SDS011;33558;50.922;14.068;2022-08-16T04:54:14;14.02;;;12.10;;
47796;SDS011;33558;50.922;14.068;2022-08-16T04:56:42;13.88;;;12.23;;
47796;SDS011;33558;50.922;14.068;2022-08-16T04:59:09;15.90;;;12.38;;
47796;SDS011;33558;50.922;14.068;2022-08-16T05:01:36;14.85;;;12.80;;
47796;SDS011;33558;50.922;14.068;2022-08-16T05:04:04;15.00;;;12.80;;
47796;SDS011;33558;50.922;14.068;2022-08-16T05:06:36;15.35;;;13.32;;
47796;SDS011;33558;50.922;14.068;2022-08-16T05:09:03;18.42;;;13.63;;
47796;SDS011;33558;50.922;14.068;2022-08-16T05:11:30;16.25;;;13.52;;
47796;SDS011;33558;50.922;14.068;2022-08-16T05:13:56;17.58;;;13.60;;
47796;SDS011;33558;50.922;14.068;2022-08-16T05:16:27;17.25;;;13.63;;
47796;SDS011;33558;50.922;14.068;2022-08-16T05:19:05;17.88;;;14.45;;
47796;SDS011;33558;50.922;14.068;2022-08-16T05:21:36;15.23;;;13.10;;
47796;SDS011;33558;50.922;14.068;2022-08-16T05:24:04;19.02;;;13.38;;
47796;SDS011;33558;50.922;14.068;2022-08-16T05:26:31;14.77;;;13.02;;
47796;SDS011;33558;50.922;14.068;2022-08-16T05:28:59;17.27;;;13.20;;
47796;SDS011;33558;50.922;14.068;2022-08-16T05:31:28;14.43;;;12.90;;
47796;SDS011;33558;50.922;14.068;2022-08-16T05:33:55;16.65;;;13.40;;
47796;SDS011;33558;50.922;14.068;2022-08-16T05:36:24;13.50;;;12.10;;
47796;SDS011;33558;50.922;14.068;2022-08-16T05:38:51;15.90;;;12.70;;
47796;SDS011;33558;50.922;14.068;2022-08-16T05:41:18;14.45;;;12.57;;
47796;SDS011;33558;50.922;14.068;2022-08-16T05:43:45;14.20;;;12.70;;
47796;SDS011;33558;50.922;14.068;2022-08-16T05:46:13;14.77;;;13.18;;
47796;SDS011;33558;50.922;14.068;2022-08-16T05:48:42;15.85;;;13.35;;
47796;SDS011;33558;50.922;14.068;2022-08-16T05:51:12;17.10;;;14.07;;
47796;SDS011;33558;50.922;14.068;2022-08-16T05:53:40;16.88;;;13.07;;
47796;SDS011;33558;50.922;14.068;2022-08-16T05:56:10;15.70;;;13.93;;
47796;SDS011;33558;50.922;14.068;2022-08-16T05:58:40;16.00;;;14.10;;
47796;SDS011;33558;50.922;14.068;2022-08-16T06:01:10;17.73;;;14.93;;
47796;SDS011;33558;50.922;14.068;2022-08-16T06:03:39;16.10;;;14.38;;
47796;SDS011;33558;50.922;14.068;2022-08-16T06:06:26;16.83;;;14.82;;
47796;SDS011;33558;50.922;14.068;2022-08-16T06:08:54;14.88;;;13.25;;
47796;SDS011;33558;50.922;14.068;2022-08-16T06:11:21;18.33;;;15.45;;
47796;SDS011;33558;50.922;14.068;2022-08-16T06:13:53;17.30;;;14.88;;
47796;SDS011;33558;50.922;14.068;2022-08-16T06:16:31;15.52;;;13.43;;
47796;SDS011;33558;50.922;14.068;2022-08-16T06:18:58;17.20;;;15.32;;
47796;SDS011;33558;50.922;14.068;2022-08-16T06:21:25;17.05;;;14.75;;
47796;SDS011;33558;50.922;14.068;2022-08-16T06:24:00;15.90;;;14.20;;
47796;SDS011;33558;50.922;14.068;2022-08-16T06:26:31;16.45;;;14.20;;
47796;SDS011;33558;50.922;14.068;2022-08-16T06:28:58;17.63;;;14.55;;
47796;SDS011;33558;50.922;14.068;2022-08-16T06:31:32;16.15;;;13.70;;
47796;SDS011;33558;50.922;14.068;2022-08-16T06:34:00;15.73;;;14.00;;
47796;SDS011;33558;50.922;14.068;2022-08-16T06:36:32;18.48;;;15.25;;
47796;SDS011;33558;50.922;14.068;2022-08-16T06:39:08;15.95;;;13.88;;
47796;SDS011;33558;50.922;14.068;2022-08-16T06:41:47;14.98;;;13.40;;
47796;SDS011;33558;50.922;14.068;2022-08-16T06:44:33;15.65;;;12.80;;
47796;SDS011;33558;50.922;14.068;2022-08-16T06:47:04;16.00;;;13.52;;
47796;SDS011;33558;50.922;14.068;2022-08-16T06:49:31;15.43;;;13.38;;
47796;SDS011;33558;50.922;14.068;2022-08-16T06:51:59;13.85;;;11.77;;
47796;SDS011;33558;50.922;14.068;2022-08-16T06:54:28;17.02;;;14.65;;
47796;SDS011;33558;50.922;14.068;2022-08-16T06:56:55;15.13;;;12.55;;
47796;SDS011;33558;50.922;14.068;2022-08-16T06:59:22;14.88;;;12.27;;
47796;SDS011;33558;50.922;14.068;2022-08-16T07:01:48;12.80;;;11.40;;
47796;SDS011;33558;50.922;14.068;2022-08-16T07:04:16;12.60;;;11.27;;
47796;SDS011;33558;50.922;14.068;2022-08-16T07:06:43;15.82;;;12.82;;
47796;SDS011;33558;50.922;14.068;2022-08-16T07:09:13;14.43;;;12.50;;
47796;SDS011;33558;50.922;14.068;2022-08-16T07:11:45;13.10;;;11.80;;
47796;SDS011;33558;50.922;14.068;2022-08-16T07:14:12;14.82;;;12.85;;
47796;SDS011;33558;50.922;14.068;2022-08-16T07:16:45;15.80;;;13.82;;
47796;SDS011;33558;50.922;14.068;2022-08-16T07:19:12;16.40;;;13.23;;
47796;SDS011;33558;50.922;14.068;2022-08-16T07:21:42;14.02;;;12.35;;
47796;SDS011;33558;50.922;14.068;2022-08-16T07:24:09;14.65;;;13.23;;
47796;SDS011;33558;50.922;14.068;2022-08-16T07:26:39;13.15;;;11.90;;
47796;SDS011;33558;50.922;14.068;2022-08-16T07:29:08;15.10;;;11.90;;
47796;SDS011;33558;50.922;14.068;2022-08-16T07:31:35;13.48;;;12.07;;
47796;SDS011;33558;50.922;14.068;2022-08-16T07:34:03;11.43;;;9.48;;
47796;SDS011;33558;50.922;14.068;2022-08-16T07:36:31;12.63;;;10.93;;
47796;SDS011;33558;50.922;14.068;2022-08-16T07:38:58;12.93;;;10.32;;
47796;SDS011;33558;50.922;14.068;2022-08-16T07:41:30;13.38;;;11.20;;
47796;SDS011;33558;50.922;14.068;2022-08-16T07:44:00;13.10;;;9.95;;
47796;SDS011;33558;50.922;14.068;2022-08-16T07:46:30;11.23;;;10.00;;
47796;SDS011;33558;50.922;14.068;2022-08-16T07:49:00;13.10;;;9.95;;
47796;SDS011;33558;50.922;14.068;2022-08-16T07:51:27;11.52;;;9.93;;
47796;SDS011;33558;50.922;14.068;2022-08-16T07:53:56;10.65;;;9.63;;
47796;SDS011;33558;50.922;14.068;2022-08-16T07:56:23;13.90;;;9.55;;
47796;SDS011;33558;50.922;14.068;2022-08-16T07:58:50;11.45;;;10.25;;
47796;SDS011;33558;50.922;14.068;2022-08-16T08:01:17;9.50;;;8.50;;
47796;SDS011;33558;50.922;14.068;2022-08-16T08:03:49;9.05;;;8.15;;
47796;SDS011;33558;50.922;14.068;2022-08-16T08:06:21;9.30;;;8.50;;
47796;SDS011;33558;50.922;14.068;2022-08-16T08:11:22;10.07;;;8.77;;
47796;SDS011;33558;50.922;14.068;2022-08-16T08:13:51;9.13;;;7.50;;
47796;SDS011;33558;50.922;14.068;2022-08-16T08:16:19;7.07;;;6.38;;
47796;SDS011;33558;50.922;14.068;2022-08-16T08:18:48;7.78;;;5.93;;
47796;SDS011;33558;50.922;14.068;2022-08-16T08:21:15;7.30;;;5.20;;
47796;SDS011;33558;50.922;14.068;2022-08-16T08:23:43;8.13;;;5.28;;
47796;SDS011;33558;50.922;14.068;2022-08-16T08:26:10;8.00;;;4.80;;
47796;SDS011;33558;50.922;14.068;2022-08-16T08:28:37;9.65;;;4.95;;
47796;SDS011;33558;50.922;14.068;2022-08-16T08:31:05;11.00;;;5.55;;
47796;SDS011;33558;50.922;14.068;2022-08-16T08:33:37;7.20;;;4.50;;
47796;SDS011;33558;50.922;14.068;2022-08-16T08:36:06;6.13;;;4.90;;
47796;SDS011;33558;50.922;14.068;2022-08-16T08:38:36;6.03;;;4.28;;
47796;SDS011;33558;50.922;14.068;2022-08-16T08:41:03;4.60;;;4.10;;
47796;SDS011;33558;50.922;14.068;2022-08-16T08:43:33;10.00;;;3.92;;
47796;SDS011;33558;50.922;14.068;2022-08-16T08:46:01;8.88;;;4.32;;
47796;SDS011;33558;50.922;14.068;2022-08-16T08:48:28;5.25;;;3.85;;
47796;SDS011;33558;50.922;14.068;2022-08-16T08:50:56;6.10;;;4.10;;
47796;SDS011;33558;50.922;14.068;2022-08-16T08:53:24;5.65;;;4.22;;
47796;SDS011;33558;50.922;14.068;2022-08-16T08:55:52;6.05;;;4.10;;
47796;SDS011;33558;50.922;14.068;2022-08-16T08:58:20;8.55;;;4.00;;
47796;SDS011;33558;50.922;14.068;2022-08-16T09:01:00;6.22;;;3.88;;
47796;SDS011;33558;50.922;14.068;2022-08-16T09:03:27;6.57;;;4.07;;
47796;SDS011;33558;50.922;14.068;2022-08-16T09:05:54;5.15;;;3.60;;
47796;SDS011;33558;50.922;14.068;2022-08-16T09:08:22;4.82;;;3.72;;
47796;SDS011;33558;50.922;14.068;2022-08-16T09:10:56;4.72;;;3.60;;
47796;SDS011;33558;50.922;14.068;2022-08-16T09:13:24;7.55;;;3.67;;
47796;SDS011;33558;50.922;14.068;2022-08-16T09:15:51;8.15;;;3.63;;
47796;SDS011;33558;50.922;14.068;2022-08-16T09:18:19;8.63;;;4.40;;
47796;SDS011;33558;50.922;14.068;2022-08-16T09:20:47;5.20;;;3.35;;
47796;SDS011;33558;50.922;14.068;2022-08-16T09:23:17;4.88;;;3.60;;
47796;SDS011;33558;50.922;14.068;2022-08-16T09:25:44;6.15;;;3.95;;
47796;SDS011;33558;50.922;14.068;2022-08-16T09:28:16;5.88;;;3.45;;
47796;SDS011;33558;50.922;14.068;2022-08-16T09:30:50;5.38;;;3.85;;
47796;SDS011;33558;50.922;14.068;2022-08-16T09:33:17;4.45;;;3.55;;
47796;SDS011;33558;50.922;14.068;2022-08-16T09:35:44;4.15;;;3.50;;
47796;SDS011;33558;50.922;14.068;2022-08-16T09:38:12;4.90;;;3.50;;
47796;SDS011;33558;50.922;14.068;2022-08-16T09:40:39;4.47;;;3.67;;
47796;SDS011;33558;50.922;14.068;2022-08-16T09:43:06;7.30;;;3.67;;
47796;SDS011;33558;50.922;14.068;2022-08-16T09:45:34;5.53;;;3.50;;
47796;SDS011;33558;50.922;14.068;2022-08-16T09:48:06;3.47;;;3.17;;
47796;SDS011;33558;50.922;14.068;2022-08-16T09:50:35;3.40;;;3.08;;
47796;SDS011;33558;50.922;14.068;2022-08-16T09:53:02;5.07;;;3.17;;
47796;SDS011;33558;50.922;14.068;2022-08-16T09:55:30;4.57;;;2.80;;
47796;SDS011;33558;50.922;14.068;2022-08-16T09:57:56;5.15;;;3.15;;
47796;SDS011;33558;50.922;14.068;2022-08-16T10:00:23;4.28;;;2.90;;
47796;SDS011;33558;50.922;14.068;2022-08-16T10:02:52;4.35;;;2.95;;
47796;SDS011;33558;50.922;14.068;2022-08-16T10:05:19;4.53;;;3.08;;
47796;SDS011;33558;50.922;14.068;2022-08-16T10:07:46;5.28;;;3.15;;
47796;SDS011;33558;50.922;14.068;2022-08-16T10:10:16;3.95;;;3.10;;
47796;SDS011;33558;50.922;14.068;2022-08-16T10:12:43;3.47;;;3.17;;
47796;SDS011;33558;50.922;14.068;2022-08-16T10:15:27;3.83;;;3.08;;
47796;SDS011;33558;50.922;14.068;2022-08-16T10:17:55;6.65;;;3.47;;
47796;SDS011;33558;50.922;14.068;2022-08-16T10:20:23;5.03;;;3.50;;
47796;SDS011;33558;50.922;14.068;2022-08-16T10:22:50;5.47;;;3.05;;
47796;SDS011;33558;50.922;14.068;2022-08-16T10:25:17;4.50;;;3.05;;
47796;SDS011;33558;50.922;14.068;2022-08-16T10:27:44;6.05;;;3.30;;
47796;SDS011;33558;50.922;14.068;2022-08-16T10:30:12;4.55;;;3.17;;
47796;SDS011;33558;50.922;14.068;2022-08-16T10:32:40;4.65;;;3.17;;
47796;SDS011;33558;50.922;14.068;2022-08-16T10:35:08;6.93;;;3.55;;
47796;SDS011;33558;50.922;14.068;2022-08-16T10:37:35;4.68;;;3.33;;
47796;SDS011;33558;50.922;14.068;2022-08-16T10:40:03;3.97;;;3.13;;
47796;SDS011;33558;50.922;14.068;2022-08-16T10:42:31;7.57;;;3.08;;
47796;SDS011;33558;50.922;14.068;2022-08-16T10:44:57;4.85;;;3.20;;
47796;SDS011;33558;50.922;14.068;2022-08-16T10:47:24;4.93;;;3.25;;
47796;SDS011;33558;50.922;14.068;2022-08-16T10:49:51;3.17;;;2.88;;
47796;SDS011;33558;50.922;14.068;2022-08-16T10:52:18;3.20;;;2.90;;
47796;SDS011;33558;50.922;14.068;2022-08-16T10:54:45;3.80;;;3.10;;
47796;SDS011;33558;50.922;14.068;2022-08-16T10:57:12;6.18;;;3.63;;
47796;SDS011;33558;50.922;14.068;2022-08-16T10:59:39;4.75;;;3.15;;
47796;SDS011;33558;50.922;14.068;2022-08-16T11:02:06;5.72;;;3.25;;
47796;SDS011;33558;50.922;14.068;2022-08-16T11:04:34;4.53;;;3.60;;
47796;SDS011;33558;50.922;14.068;2022-08-16T11:07:01;6.07;;;3.60;;
47796;SDS011;33558;50.922;14.068;2022-08-16T11:09:29;3.70;;;3.40;;
47796;SDS011;33558;50.922;14.068;2022-08-16T11:11:56;4.07;;;3.65;;
47796;SDS011;33558;50.922;14.068;2022-08-16T11:14:23;6.35;;;3.22;;
47796;SDS011;33558;50.922;14.068;2022-08-16T11:16:50;7.53;;;3.70;;
47796;SDS011;33558;50.922;14.068;2022-08-16T11:19:16;6.20;;;3.35;;
47796;SDS011;33558;50.922;14.068;2022-08-16T11:21:43;3.67;;;2.83;;
47796;SDS011;33558;50.922;14.068;2022-08-16T11:24:10;5.18;;;3.80;;
47796;SDS011;33558;50.922;14.068;2022-08-16T11:26:39;6.05;;;3.50;;
47796;SDS011;33558;50.922;14.068;2022-08-16T11:29:06;5.85;;;3.50;;
47796;SDS011;33558;50.922;14.068;2022-08-16T11:31:34;6.65;;;3.80;;
47796;SDS011;33558;50.922;14.068;2022-08-16T11:34:00;5.35;;;4.00;;
47796;SDS011;33558;50.922;14.068;2022-08-16T11:36:27;5.68;;;3.50;;
47796;SDS011;33558;50.922;14.068;2022-08-16T11:38:54;7.07;;;3.45;;
47796;SDS011;33558;50.922;14.068;2022-08-16T11:41:21;5.15;;;3.90;;
47796;SDS011;33558;50.922;14.068;2022-08-16T11:43:49;7.47;;;3.88;;
47796;SDS011;33558;50.922;14.068;2022-08-16T11:46:16;8.18;;;4.22;;
47796;SDS011;33558;50.922;14.068;2022-08-16T11:48:44;3.97;;;3.05;;
47796;SDS011;33558;50.922;14.068;2022-08-16T11:51:12;3.45;;;3.13;;
47796;SDS011;33558;50.922;14.068;2022-08-16T11:53:39;4.38;;;3.00;;
47796;SDS011;33558;50.922;14.068;2022-08-16T11:56:05;3.30;;;2.60;;
47796;SDS011;33558;50.922;14.068;2022-08-16T11:58:33;3.85;;;2.78;;
47796;SDS011;33558;50.922;14.068;2022-08-16T12:01:01;5.25;;;3.58;;
47796;SDS011;33558;50.922;14.068;2022-08-16T12:03:29;4.95;;;3.38;;
47796;SDS011;33558;50.922;14.068;2022-08-16T12:05:57;4.63;;;3.03;;
47796;SDS011;33558;50.922;14.068;2022-08-16T12:08:25;3.70;;;3.15;;
47796;SDS011;33558;50.922;14.068;2022-08-16T12:10:53;4.90;;;3.33;;
47796;SDS011;33558;50.922;14.068;2022-08-16T12:13:20;4.10;;;3.10;;
47796;SDS011;33558;50.922;14.068;2022-08-16T12:15:47;4.07;;;2.83;;
47796;SDS011;33558;50.922;14.068;2022-08-16T12:18:15;4.95;;;3.20;;
47796;SDS011;33558;50.922;14.068;2022-08-16T12:20:42;4.38;;;3.03;;
47796;SDS011;33558;50.922;14.068;2022-08-16T12:23:10;6.20;;;3.38;;
47796;SDS011;33558;50.922;14.068;2022-08-16T12:25:36;3.40;;;3.10;;
47796;SDS011;33558;50.922;14.068;2022-08-16T12:28:04;4.63;;;3.30;;
47796;SDS011;33558;50.922;14.068;2022-08-16T12:30:32;5.05;;;3.30;;
47796;SDS011;33558;50.922;14.068;2022-08-16T12:33:01;5.97;;;3.20;;
47796;SDS011;33558;50.922;14.068;2022-08-16T12:35:31;4.07;;;3.13;;
47796;SDS011;33558;50.922;14.068;2022-08-16T12:37:58;5.25;;;3.00;;
47796;SDS011;33558;50.922;14.068;2022-08-16T12:40:30;6.45;;;3.15;;
47796;SDS011;33558;50.922;14.068;2022-08-16T12:43:03;3.13;;;2.83;;
47796;SDS011;33558;50.922;14.068;2022-08-16T12:45:32;3.83;;;2.95;;
47796;SDS011;33558;50.922;14.068;2022-08-16T12:48:02;4.82;;;3.25;;
47796;SDS011;33558;50.922;14.068;2022-08-16T12:50:48;8.18;;;3.10;;
47796;SDS011;33558;50.922;14.068;2022-08-16T12:53:15;4.38;;;2.75;;
47796;SDS011;33558;50.922;14.068;2022-08-16T12:55:42;5.75;;;2.70;;
47796;SDS011;33558;50.922;14.068;2022-08-16T12:58:09;3.95;;;2.60;;
47796;SDS011;33558;50.922;14.068;2022-08-16T13:00:36;5.45;;;2.60;;
47796;SDS011;33558;50.922;14.068;2022-08-16T13:03:03;2.88;;;2.47;;
47796;SDS011;33558;50.922;14.068;2022-08-16T13:05:30;5.18;;;2.60;;
47796;SDS011;33558;50.922;14.068;2022-08-16T13:08:06;2.42;;;2.20;;
47796;SDS011;33558;50.922;14.068;2022-08-16T13:10:33;2.63;;;2.28;;
47796;SDS011;33558;50.922;14.068;2022-08-16T13:13:01;2.78;;;2.47;;
47796;SDS011;33558;50.922;14.068;2022-08-16T13:15:29;3.90;;;2.33;;
47796;SDS011;33558;50.922;14.068;2022-08-16T13:17:56;2.72;;;2.25;;
47796;SDS011;33558;50.922;14.068;2022-08-16T13:20:23;3.60;;;2.67;;
47796;SDS011;33558;50.922;14.068;2022-08-16T13:22:53;3.97;;;3.20;;
47796;SDS011;33558;50.922;14.068;2022-08-16T13:25:26;3.25;;;2.30;;
47796;SDS011;33558;50.922;14.068;2022-08-16T13:27:54;3.00;;;2.40;;
47796;SDS011;33558;50.922;14.068;2022-08-16T13:30:22;4.22;;;2.25;;
47796;SDS011;33558;50.922;14.068;2022-08-16T13:32:49;3.70;;;2.22;;
47796;SDS011;33558;50.922;14.068;2022-08-16T13:35:17;2.80;;;2.20;;
47796;SDS011;33558;50.922;14.068;2022-08-16T13:37:44;4.95;;;2.42;;
47796;SDS011;33558;50.922;14.068;2022-08-16T13:40:11;4.00;;;2.30;;
47796;SDS011;33558;50.922;14.068;2022-08-16T13:42:39;4.60;;;2.25;;
47796;SDS011;33558;50.922;14.068;2022-08-16T13:45:06;5.40;;;2.38;;
47796;SDS011;33558;50.922;14.068;2022-08-16T13:47:34;4.10;;;2.30;;
47796;SDS011;33558;50.922;14.068;2022-08-16T13:50:01;2.42;;;1.83;;
47796;SDS011;33558;50.922;14.068;2022-08-16T13:52:29;3.65;;;2.10;;
47796;SDS011;33558;50.922;14.068;2022-08-16T13:54:55;2.55;;;1.98;;
47796;SDS011;33558;50.922;14.068;2022-08-16T13:57:22;5.50;;;2.40;;
47796;SDS011;33558;50.922;14.068;2022-08-16T13:59:50;3.22;;;2.00;;
47796;SDS011;33558;50.922;14.068;2022-08-16T14:02:16;3.75;;;2.10;;
47796;SDS011;33558;50.922;14.068;2022-08-16T14:04:43;2.83;;;2.40;;
47796;SDS011;33558;50.922;14.068;2022-08-16T14:07:10;4.60;;;2.08;;
47796;SDS011;33558;50.922;14.068;2022-08-16T14:09:40;3.03;;;2.20;;
47796;SDS011;33558;50.922;14.068;2022-08-16T14:12:12;2.47;;;1.92;;
47796;SDS011;33558;50.922;14.068;2022-08-16T14:14:43;2.78;;;2.10;;
47796;SDS011;33558;50.922;14.068;2022-08-16T14:17:12;4.47;;;1.95;;
47796;SDS011;33558;50.922;14.068;2022-08-16T14:19:39;4.63;;;1.95;;
47796;SDS011;33558;50.922;14.068;2022-08-16T14:22:06;7.00;;;2.42;;
47796;SDS011;33558;50.922;14.068;2022-08-16T14:24:33;6.28;;;2.47;;
47796;SDS011;33558;50.922;14.068;2022-08-16T14:27:00;7.57;;;2.40;;
47796;SDS011;33558;50.922;14.068;2022-08-16T14:29:27;3.47;;;2.38;;
47796;SDS011;33558;50.922;14.068;2022-08-16T14:31:54;6.03;;;2.33;;